Pagrindinis puslapis
METAR-TAF:

METAR-TAF

Oro uostai :

Trolhetanas-Venešborgas, Švedija

platuma: 58-19N, ilguma: 012-21E, Aukštis: 41 m

Dabartinis oras

Ataskaita buvo paskelbta 23 minutes, ne 10:20 UTC
Vėjas 4 kt iš Pietų/Pietryčių
Temperatūra 9°C
Drėgmė 93%
Slėgis 1003 hPa
Matomumas 10 km arba daugiau
Išsisklaidę debesys ne aukštis 1200 ft

METAR: ESGT 291020Z 15004KT 9999 SCT012 09/08 Q1003

Laikas: 11:43 (10:43 UTC)

Prognozė

Ataskaita buvo paskelbta 2 valandos ir 13 minutes, ne 08:30 UTC
Prognozė galioja nuo 29 metu 09 UTC su 29 metu 14 UTC
Vėjas 6 kt iš Pietų/Pietryčių
Matomumas 10 km arba daugiau
Išsisklaidę debesys ne aukštis 1500 ft
Su prošvaistėmis ne aukštis 3000 ft
Tikimybė 40%
nuo 29 metu 09 UTC su 29 metu 14 UTC
Su prošvaistėmis ne aukštis 1200 ft
Su prošvaistėmis ne aukštis 3000 ft, Liūtiniai kamuoliniai debesys.
lietus

TAF: ESGT 290830Z 2909/2914 16006KT 9999 SCT015 BKN030 PROB40 2909/2914 SHRA BKN012 BKN030CB

Orai ataskaitas ir orų prognozės (METAR, TAF).

turimą stotys yra geltonos ir raudonos taškus žemėlapyje.

Perkelti pele per norėdami pamatyti stoties vardą.

Tada spustelėkite, norėdami matyti oro stebėjimo ir prognozės.

Norėdami pakeisti žemėlapį: spustelėkite ant žalios mygtukų su juodo kryžiaus žemyn,; žalią mygtuką su brūkšneliu, jei norite nutolinti; arba žalių rodyklių gretimoms žemėlapius.


METAR-TAF: